Time;durP1;ratioP1;P1;durP2;ratioP2;P2;SDS_P1;SDS_P2;PMS_P1;PMS_P2;Temp;Humidity;BMP_temperature;BMP_pressure;BME280_temperature;BME280_humidity;BME280_pressure;Samples;Min_cycle;Max_cycle;Signal;HPM_P1;HPM_P2
2023/12/22 00:01:08;;;;;;;18.30;3.88;;;6.50;99.90;;;;;;5016732;28;20041;-61
2023/12/22 00:03:34;;;;;;;15.00;3.83;;;6.50;99.90;;;;;;5002306;28;20384;-62
2023/12/22 00:05:59;;;;;;;21.63;4.72;;;6.40;99.90;;;;;;4997824;28;20137;-62
2023/12/22 00:08:25;;;;;;;19.65;3.92;;;6.40;99.90;;;;;;4996739;28;20407;-62
2023/12/22 00:10:51;;;;;;;20.92;4.63;;;6.50;99.90;;;;;;4997575;28;20038;-62
2023/12/22 00:13:16;;;;;;;20.75;4.78;;;6.60;99.90;;;;;;4997473;28;20133;-62
2023/12/22 00:15:42;;;;;;;17.75;4.18;;;6.60;99.90;;;;;;5006456;28;20052;-62
2023/12/22 00:18:08;;;;;;;20.63;5.40;;;6.60;99.90;;;;;;4997271;28;20054;-62
2023/12/22 00:20:34;;;;;;;16.35;4.03;;;6.30;99.90;;;;;;4997283;28;20081;-62
2023/12/22 00:22:59;;;;;;;18.85;5.93;;;6.00;99.90;;;;;;4996788;28;20040;-63
2023/12/22 00:25:25;;;;;;;16.10;4.43;;;5.70;99.90;;;;;;4997234;28;20096;-62
2023/12/22 00:27:51;;;;;;;20.58;5.25;;;5.60;99.90;;;;;;4997304;28;20050;-62
2023/12/22 00:30:17;;;;;;;27.42;4.90;;;5.60;99.90;;;;;;4980594;28;20045;-62
2023/12/22 00:32:42;;;;;;;17.67;5.10;;;5.60;99.90;;;;;;4997179;28;20044;-62
2023/12/22 00:35:08;;;;;;;37.65;6.22;;;5.80;99.90;;;;;;4997030;28;20077;-62
2023/12/22 00:37:34;;;;;;;18.55;5.70;;;5.90;99.90;;;;;;4996763;28;20053;-62
2023/12/22 00:40:00;;;;;;;14.88;3.97;;;6.00;99.90;;;;;;4987165;28;20042;-62
2023/12/22 00:42:26;;;;;;;16.73;4.90;;;6.10;99.90;;;;;;4997029;28;20116;-62
2023/12/22 00:44:52;;;;;;;9.82;3.60;;;6.20;99.90;;;;;;4996459;28;20120;-62
2023/12/22 00:47:17;;;;;;;13.40;4.20;;;6.30;99.90;;;;;;4997144;28;20050;-62
2023/12/22 00:49:43;;;;;;;17.95;4.75;;;6.10;99.90;;;;;;4997060;28;20042;-62
2023/12/22 00:52:09;;;;;;;17.95;4.45;;;6.00;99.90;;;;;;4996180;28;20475;-62
2023/12/22 00:54:35;;;;;;;15.75;4.15;;;6.00;99.90;;;;;;4996954;28;20506;-62
2023/12/22 00:57:00;;;;;;;17.73;4.07;;;6.00;99.90;;;;;;4999337;28;20046;-62
2023/12/22 00:59:26;;;;;;;7.82;2.50;;;6.00;99.90;;;;;;4999942;28;20433;-62
2023/12/22 01:01:52;;;;;;;12.25;2.25;;;6.00;99.90;;;;;;5017393;28;20517;-62
2023/12/22 01:04:17;;;;;;;17.52;4.38;;;5.70;99.90;;;;;;5035240;28;20103;-62
2023/12/22 01:06:43;;;;;;;9.00;2.28;;;5.60;99.90;;;;;;5036121;28;20033;-62
2023/12/22 01:09:09;;;;;;;13.68;2.75;;;5.50;99.90;;;;;;5019427;28;20106;-62
2023/12/22 01:11:34;;;;;;;13.40;3.95;;;5.50;99.90;;;;;;5035306;28;20534;-62
2023/12/22 01:14:00;;;;;;;21.73;4.47;;;5.60;99.90;;;;;;5035867;28;20037;-62
2023/12/22 01:16:26;;;;;;;24.75;4.88;;;5.60;99.90;;;;;;5035865;28;20098;-62
2023/12/22 01:18:51;;;;;;;11.55;4.35;;;5.80;99.90;;;;;;5034844;28;20080;-62
2023/12/22 01:21:17;;;;;;;21.20;4.50;;;6.00;99.90;;;;;;5035752;28;20041;-62
2023/12/22 01:23:43;;;;;;;12.90;3.20;;;6.20;99.90;;;;;;5022892;28;20041;-61
2023/12/22 01:26:09;;;;;;;20.55;4.55;;;6.40;99.90;;;;;;5032720;28;20037;-62
2023/12/22 01:28:35;;;;;;;13.05;3.50;;;6.60;99.90;;;;;;5032579;28;20057;-62
2023/12/22 01:31:01;;;;;;;18.20;3.50;;;6.60;99.90;;;;;;5033695;28;20498;-62
2023/12/22 01:33:26;;;;;;;13.63;2.53;;;6.60;99.90;;;;;;5031281;28;20044;-62
2023/12/22 01:35:55;;;;;;;14.52;3.63;;;6.40;99.90;;;;;;5015561;28;20037;-62
2023/12/22 01:38:21;;;;;;;18.35;3.05;;;6.40;99.90;;;;;;5032018;28;20172;-62
2023/12/22 01:40:47;;;;;;;11.88;3.38;;;6.30;99.90;;;;;;5031155;28;20116;-62
2023/12/22 01:43:14;;;;;;;15.02;3.78;;;6.20;99.90;;;;;;5020522;28;20131;-62
2023/12/22 01:45:43;;;;;;;19.58;4.50;;;6.20;99.90;;;;;;5015837;28;20352;-62
2023/12/22 01:48:09;;;;;;;12.43;3.47;;;6.30;99.90;;;;;;5014870;28;20359;-62
2023/12/22 01:50:36;;;;;;;14.30;3.75;;;6.30;99.90;;;;;;5015351;28;20486;-62
2023/12/22 01:53:02;;;;;;;19.02;5.15;;;6.40;99.90;;;;;;5022235;28;20094;-62
2023/12/22 01:55:29;;;;;;;17.23;4.07;;;6.40;99.90;;;;;;5051035;28;20466;-62
2023/12/22 01:57:56;;;;;;;20.95;5.43;;;6.60;99.90;;;;;;5035098;28;20056;-62
2023/12/22 02:00:21;;;;;;;13.38;3.63;;;6.70;99.90;;;;;;5051862;28;20383;-62
2023/12/22 02:02:47;;;;;;;16.58;3.10;;;6.70;99.90;;;;;;5018098;28;20056;-62
2023/12/22 02:05:13;;;;;;;13.98;3.90;;;6.80;99.90;;;;;;5051599;28;20045;-62
2023/12/22 02:07:41;;;;;;;20.58;4.90;;;6.70;99.90;;;;;;5052020;28;20071;-62
2023/12/22 02:10:08;;;;;;;19.52;3.55;;;6.70;99.90;;;;;;5051017;28;20102;-62
2023/12/22 02:12:36;;;;;;;10.38;2.72;;;6.60;99.90;;;;;;5018283;28;20258;-62
2023/12/22 02:15:02;;;;;;;12.27;2.35;;;6.40;99.90;;;;;;5051922;28;20041;-62
2023/12/22 02:17:43;;;;;;;12.70;2.85;;;6.20;99.90;;;;;;5018383;28;20037;-61
2023/12/22 02:20:10;;;;;;;12.55;3.20;;;6.10;99.90;;;;;;5052660;28;20102;-62
2023/12/22 02:22:35;;;;;;;18.48;4.53;;;6.00;99.90;;;;;;5033123;28;20045;-62
2023/12/22 02:25:01;;;;;;;12.60;3.90;;;6.00;99.90;;;;;;5035144;28;20045;-62
2023/12/22 02:27:38;;;;;;;17.73;4.38;;;6.00;99.90;;;;;;5034675;28;20040;-62
2023/12/22 02:30:13;;;;;;;15.43;5.32;;;6.00;99.90;;;;;;5036696;28;20407;-62
2023/12/22 02:32:42;;;;;;;17.17;4.07;;;6.10;99.90;;;;;;5014587;28;20046;-61
2023/12/22 02:35:11;;;;;;;17.20;4.75;;;6.40;99.90;;;;;;5032346;28;20560;-62
2023/12/22 02:37:39;;;;;;;15.43;2.90;;;6.30;99.90;;;;;;5014268;28;20041;-62
2023/12/22 02:40:07;;;;;;;13.15;4.05;;;6.10;99.90;;;;;;5015024;28;20056;-62
2023/12/22 02:42:34;;;;;;;11.43;2.78;;;6.00;99.90;;;;;;5032104;28;20040;-62
2023/12/22 02:45:00;;;;;;;16.25;2.97;;;5.90;99.90;;;;;;5034283;28;20044;-62
2023/12/22 02:47:29;;;;;;;15.25;2.88;;;5.90;99.90;;;;;;5046340;28;20120;-62
2023/12/22 02:49:55;;;;;;;9.32;2.20;;;6.00;99.90;;;;;;5013977;28;20053;-62
2023/12/22 02:52:20;;;;;;;11.18;2.28;;;6.10;99.90;;;;;;5014415;28;20048;-62
2023/12/22 02:54:47;;;;;;;16.80;3.50;;;6.10;99.90;;;;;;5014480;28;20045;-62
2023/12/22 02:57:12;;;;;;;12.13;2.58;;;6.10;99.90;;;;;;5013558;28;20052;-62
2023/12/22 02:59:38;;;;;;;13.65;2.75;;;6.20;99.90;;;;;;5023746;28;20053;-62
2023/12/22 03:02:04;;;;;;;13.25;3.50;;;6.20;99.90;;;;;;5017636;28;20094;-62
2023/12/22 03:04:30;;;;;;;10.05;3.10;;;6.30;99.90;;;;;;5033056;28;20049;-62
2023/12/22 03:06:56;;;;;;;15.45;4.07;;;6.50;99.90;;;;;;5034210;28;20041;-62
2023/12/22 03:09:22;;;;;;;14.48;4.93;;;6.50;99.90;;;;;;5043086;28;20041;-62
2023/12/22 03:11:54;;;;;;;13.43;2.40;;;6.50;99.90;;;;;;5013875;28;20509;-62
2023/12/22 03:14:20;;;;;;;10.63;3.03;;;6.50;99.90;;;;;;5014260;28;20060;-62
2023/12/22 03:16:46;;;;;;;11.70;3.28;;;6.60;99.90;;;;;;5014036;28;20050;-62
2023/12/22 03:19:11;;;;;;;16.40;3.95;;;6.60;99.90;;;;;;4997000;28;20038;-62
2023/12/22 03:21:37;;;;;;;11.38;3.45;;;6.60;99.90;;;;;;4999364;28;20037;-62
2023/12/22 03:24:03;;;;;;;13.68;3.05;;;6.40;99.90;;;;;;5036454;28;20094;-62
2023/12/22 03:26:28;;;;;;;18.25;3.90;;;6.10;99.90;;;;;;5017480;28;20124;-62
2023/12/22 03:28:54;;;;;;;18.40;3.55;;;6.10;99.90;;;;;;5018165;28;20053;-62
2023/12/22 03:31:20;;;;;;;22.58;4.65;;;6.10;99.90;;;;;;5018047;28;20052;-62
2023/12/22 03:33:45;;;;;;;14.90;4.47;;;6.10;99.90;;;;;;5000910;28;20075;-62
2023/12/22 03:36:11;;;;;;;18.90;4.93;;;6.20;99.90;;;;;;5034248;28;20064;-62
2023/12/22 03:38:37;;;;;;;16.45;4.60;;;6.30;99.90;;;;;;5036065;28;20068;-62
2023/12/22 03:41:02;;;;;;;16.80;3.28;;;6.50;99.90;;;;;;5038170;28;20048;-62
2023/12/22 03:43:31;;;;;;;18.05;4.47;;;6.60;99.90;;;;;;5055257;28;20045;-62
2023/12/22 03:45:56;;;;;;;17.98;4.45;;;6.70;99.90;;;;;;5037319;28;20037;-62
2023/12/22 03:48:22;;;;;;;15.43;4.57;;;6.80;99.90;;;;;;5037299;28;20119;-62
2023/12/22 03:50:48;;;;;;;20.25;5.43;;;6.80;99.90;;;;;;5021327;28;20060;-62
2023/12/22 03:53:13;;;;;;;12.98;4.28;;;6.70;99.90;;;;;;5036697;28;20033;-62
2023/12/22 03:55:39;;;;;;;14.93;4.30;;;6.80;99.90;;;;;;5037483;28;20059;-62
2023/12/22 03:58:07;;;;;;;17.77;4.00;;;6.80;99.90;;;;;;5037507;28;20045;-62
2023/12/22 04:00:33;;;;;;;19.67;3.90;;;6.80;99.90;;;;;;5018932;28;20053;-62
2023/12/22 04:02:58;;;;;;;14.88;3.70;;;6.80;99.90;;;;;;5034005;28;20049;-61
2023/12/22 04:05:24;;;;;;;17.05;5.68;;;6.80;99.90;;;;;;5017923;28;20053;-62
2023/12/22 04:07:50;;;;;;;30.35;6.13;;;6.80;99.90;;;;;;5024134;28;20045;-62
2023/12/22 04:10:18;;;;;;;14.43;4.05;;;6.80;99.90;;;;;;5017421;28;20048;-62
2023/12/22 04:12:44;;;;;;;18.45;4.30;;;6.80;99.90;;;;;;5000662;28;20048;-62
2023/12/22 04:15:10;;;;;;;14.43;4.30;;;6.80;99.90;;;;;;5034169;28;20037;-62
2023/12/22 04:17:36;;;;;;;19.38;5.20;;;6.90;99.90;;;;;;5035052;28;20030;-62
2023/12/22 04:20:02;;;;;;;17.50;4.65;;;6.90;99.90;;;;;;5033928;28;20076;-62
2023/12/22 04:22:27;;;;;;;14.68;4.20;;;7.00;99.90;;;;;;4999828;28;20045;-61
2023/12/22 04:24:53;;;;;;;18.83;3.60;;;7.00;99.90;;;;;;5033267;28;20091;-62
2023/12/22 04:27:19;;;;;;;15.73;4.22;;;7.10;99.90;;;;;;5045095;28;20037;-62
2023/12/22 04:29:44;;;;;;;12.52;3.88;;;7.10;99.90;;;;;;5035607;28;20053;-62
2023/12/22 04:32:10;;;;;;;14.52;3.25;;;7.00;99.90;;;;;;5020533;28;20062;-62
2023/12/22 04:34:35;;;;;;;14.38;4.78;;;7.10;99.90;;;;;;5052651;28;20052;-62
2023/12/22 04:37:01;;;;;;;12.30;5.32;;;7.00;99.90;;;;;;5051035;28;20458;-62
2023/12/22 04:39:27;;;;;;;12.07;4.22;;;7.10;99.90;;;;;;5052911;28;20072;-62
2023/12/22 04:41:52;;;;;;;13.00;3.47;;;7.00;99.90;;;;;;5054164;28;20094;-62
2023/12/22 04:44:18;;;;;;;13.40;4.75;;;7.00;99.90;;;;;;5036189;28;20082;-62
2023/12/22 04:46:43;;;;;;;14.80;3.55;;;7.10;99.90;;;;;;5040009;28;20432;-62
2023/12/22 04:49:09;;;;;;;12.65;4.55;;;7.10;99.90;;;;;;5035915;28;20484;-62
2023/12/22 04:51:35;;;;;;;26.55;4.93;;;7.10;99.90;;;;;;5036581;28;20521;-62
2023/12/22 04:54:00;;;;;;;12.02;3.50;;;7.20;99.90;;;;;;5036656;28;20470;-63
2023/12/22 04:56:26;;;;;;;17.65;3.65;;;7.20;99.90;;;;;;5017302;28;20041;-62
2023/12/22 04:58:52;;;;;;;19.85;3.50;;;7.10;99.90;;;;;;5035499;28;20402;-62
2023/12/22 05:01:19;;;;;;;14.18;3.15;;;7.10;99.90;;;;;;5052740;28;20047;-62
2023/12/22 05:03:44;;;;;;;19.48;4.50;;;7.10;99.90;;;;;;5035390;28;20061;-62
2023/12/22 05:06:10;;;;;;;17.15;4.78;;;7.20;99.90;;;;;;5036007;28;20056;-62
2023/12/22 05:08:36;;;;;;;13.88;4.20;;;7.10;99.90;;;;;;5052556;28;20524;-62
2023/12/22 05:11:01;;;;;;;17.27;4.40;;;7.10;99.90;;;;;;5035433;28;20425;-62
2023/12/22 05:13:27;;;;;;;17.80;3.72;;;7.20;99.90;;;;;;5052746;28;20535;-62
2023/12/22 05:15:53;;;;;;;17.63;3.83;;;7.20;99.90;;;;;;5052687;28;20063;-62
2023/12/22 05:18:18;;;;;;;9.40;4.18;;;7.20;99.90;;;;;;5034855;28;20045;-62
2023/12/22 05:20:44;;;;;;;17.25;5.57;;;7.10;99.90;;;;;;5019047;28;20041;-62
2023/12/22 05:23:10;;;;;;;9.98;3.47;;;7.10;99.90;;;;;;5035547;28;20124;-62
2023/12/22 05:25:36;;;;;;;12.65;4.90;;;7.10;99.90;;;;;;5032393;28;20128;-62
2023/12/22 05:28:02;;;;;;;17.88;3.25;;;7.10;99.90;;;;;;4999533;28;20116;-62
2023/12/22 05:30:27;;;;;;;13.63;3.88;;;7.10;99.90;;;;;;5016369;28;20053;-62
2023/12/22 05:32:54;;;;;;;12.10;3.28;;;7.10;99.90;;;;;;5015134;28;20049;-62
2023/12/22 05:35:20;;;;;;;15.70;5.10;;;7.10;99.90;;;;;;5022408;28;20079;-62
2023/12/22 05:37:47;;;;;;;13.88;3.92;;;7.10;99.90;;;;;;5035108;28;20497;-62
2023/12/22 05:40:13;;;;;;;19.48;4.72;;;7.10;99.90;;;;;;5034294;28;20056;-62
2023/12/22 05:42:39;;;;;;;11.10;3.30;;;7.10;99.90;;;;;;5035101;28;20120;-61
2023/12/22 05:45:06;;;;;;;17.05;4.22;;;7.00;99.90;;;;;;5034202;28;20040;-62
2023/12/22 05:47:32;;;;;;;14.30;4.15;;;7.10;99.90;;;;;;5034436;28;20045;-62
2023/12/22 05:49:58;;;;;;;15.93;5.28;;;7.10;99.90;;;;;;5052131;28;20485;-62
2023/12/22 05:52:24;;;;;;;17.50;3.15;;;7.20;99.90;;;;;;5052128;28;20044;-61
2023/12/22 05:54:49;;;;;;;17.85;3.00;;;7.20;99.90;;;;;;5051669;28;20044;-62
2023/12/22 05:57:15;;;;;;;18.40;4.85;;;7.20;99.90;;;;;;5035483;28;20082;-62
2023/12/22 05:59:41;;;;;;;17.48;5.00;;;7.20;99.90;;;;;;5034664;28;20049;-62
2023/12/22 06:02:07;;;;;;;10.80;4.05;;;7.20;99.90;;;;;;5018561;28;20056;-62
2023/12/22 06:04:32;;;;;;;12.63;3.25;;;7.20;99.90;;;;;;5020292;28;20045;-62
2023/12/22 06:06:58;;;;;;;11.02;2.95;;;7.30;99.90;;;;;;5031705;28;20040;-62
2023/12/22 06:09:24;;;;;;;8.05;2.53;;;7.30;99.90;;;;;;5052480;28;20635;-62
2023/12/22 06:11:51;;;;;;;14.25;2.55;;;7.20;99.90;;;;;;5051499;28;20045;-62
2023/12/22 06:14:16;;;;;;;12.35;2.58;;;7.20;99.90;;;;;;5031889;28;20033;-62
2023/12/22 06:16:42;;;;;;;20.73;3.33;;;7.30;99.90;;;;;;5015027;28;20084;-62
2023/12/22 06:19:08;;;;;;;6.65;2.28;;;7.30;99.90;;;;;;5038311;28;20041;-62
2023/12/22 06:21:36;;;;;;;11.68;3.55;;;7.30;99.90;;;;;;5034265;28;20036;-62
2023/12/22 06:24:02;;;;;;;12.38;3.13;;;7.20;99.90;;;;;;5034955;28;20047;-62
2023/12/22 06:26:28;;;;;;;18.20;4.22;;;7.20;99.90;;;;;;5034636;28;20482;-62
2023/12/22 06:28:54;;;;;;;18.88;3.90;;;7.20;99.90;;;;;;5017422;28;20041;-62
2023/12/22 06:31:21;;;;;;;13.52;3.33;;;7.20;99.90;;;;;;5034779;28;20449;-62
2023/12/22 06:33:48;;;;;;;10.68;2.97;;;7.20;99.90;;;;;;5034256;28;20393;-62
2023/12/22 06:36:24;;;;;;;12.00;2.63;;;7.20;99.90;;;;;;5041417;28;20045;-62
2023/12/22 06:38:54;;;;;;;12.55;2.97;;;7.20;99.90;;;;;;5017585;28;20044;-62
2023/12/22 06:41:30;;;;;;;17.73;2.90;;;7.10;99.90;;;;;;5023196;28;20040;-62
2023/12/22 06:43:59;;;;;;;11.68;3.03;;;7.10;99.90;;;;;;5034728;28;20553;-62
2023/12/22 06:46:26;;;;;;;14.63;4.35;;;7.20;99.90;;;;;;5017410;28;20053;-62
2023/12/22 06:48:52;;;;;;;15.13;3.85;;;7.10;99.90;;;;;;5042216;28;20090;-62
2023/12/22 06:51:25;;;;;;;17.35;3.90;;;7.10;99.90;;;;;;5034111;28;20079;-62
2023/12/22 06:53:52;;;;;;;15.05;3.50;;;7.10;99.90;;;;;;5034455;28;20048;-62
2023/12/22 06:56:22;;;;;;;14.35;3.30;;;7.10;99.90;;;;;;5033084;28;20053;-62
2023/12/22 06:58:50;;;;;;;17.95;3.13;;;7.10;99.90;;;;;;5034935;28;20099;-62
2023/12/22 07:01:29;;;;;;;14.30;2.70;;;7.10;99.90;;;;;;5017498;28;20041;-62
2023/12/22 07:03:56;;;;;;;11.23;2.72;;;7.10;99.90;;;;;;5033614;28;20491;-62
2023/12/22 07:06:27;;;;;;;14.57;3.75;;;7.10;99.90;;;;;;5033274;28;20136;-62
2023/12/22 07:09:17;;;;;;;18.33;4.05;;;7.00;99.90;;;;;;5034432;28;20367;-62
2023/12/22 07:11:46;;;;;;;13.90;4.03;;;7.10;99.90;;;;;;5023019;28;20095;-62
2023/12/22 07:14:11;;;;;;;15.20;3.10;;;7.00;99.90;;;;;;5034129;28;20041;-62
2023/12/22 07:16:37;;;;;;;11.63;3.35;;;7.00;99.90;;;;;;5051686;28;20041;-62
2023/12/22 07:19:04;;;;;;;14.82;3.78;;;7.00;99.90;;;;;;5034151;28;20119;-62
2023/12/22 07:21:30;;;;;;;14.63;3.40;;;7.10;99.90;;;;;;5027582;28;20077;-62
2023/12/22 07:23:56;;;;;;;21.80;3.53;;;7.10;99.90;;;;;;5011443;28;20045;-62
2023/12/22 07:26:21;;;;;;;11.45;3.38;;;7.10;99.90;;;;;;5012046;28;20398;-62
2023/12/22 07:28:47;;;;;;;11.90;2.58;;;7.10;99.90;;;;;;5030166;28;20049;-62
2023/12/22 07:31:14;;;;;;;14.27;2.88;;;7.10;99.90;;;;;;4998597;28;20094;-61
2023/12/22 07:33:40;;;;;;;11.90;3.35;;;7.10;99.90;;;;;;5011573;28;20045;-62
2023/12/22 07:36:06;;;;;;;21.38;3.85;;;7.10;99.90;;;;;;5017791;28;20056;-62
2023/12/22 07:38:32;;;;;;;12.82;3.50;;;7.10;99.90;;;;;;5029278;28;20433;-62
2023/12/22 07:40:58;;;;;;;13.18;3.78;;;7.10;99.90;;;;;;5011919;28;20049;-62
2023/12/22 07:43:24;;;;;;;15.70;3.85;;;7.00;99.90;;;;;;5029571;28;20045;-62
2023/12/22 07:45:51;;;;;;;12.20;3.63;;;7.00;99.90;;;;;;5010675;28;20046;-62
2023/12/22 07:48:17;;;;;;;13.88;3.33;;;7.10;99.90;;;;;;5011566;28;20045;-62
2023/12/22 07:50:43;;;;;;;13.32;3.58;;;7.10;99.90;;;;;;5029122;28;20045;-62
2023/12/22 07:53:09;;;;;;;15.82;4.78;;;7.10;99.90;;;;;;5011106;28;20041;-62
2023/12/22 07:55:35;;;;;;;16.85;4.03;;;7.10;99.90;;;;;;5018479;28;20080;-62
2023/12/22 07:58:01;;;;;;;11.57;5.10;;;7.10;99.90;;;;;;5015107;28;20037;-62
2023/12/22 08:00:26;;;;;;;16.35;4.05;;;7.10;99.90;;;;;;5047033;28;20390;-62
2023/12/22 08:02:52;;;;;;;10.95;3.38;;;7.10;99.90;;;;;;5021962;28;20072;-62
2023/12/22 08:05:18;;;;;;;12.80;3.85;;;7.00;99.90;;;;;;5000871;28;20067;-62
2023/12/22 08:07:44;;;;;;;14.32;3.10;;;7.00;99.90;;;;;;5010812;28;20045;-62
2023/12/22 08:10:10;;;;;;;12.07;3.58;;;7.00;99.90;;;;;;5018499;28;20052;-62
2023/12/22 08:12:36;;;;;;;15.60;5.07;;;7.00;99.90;;;;;;5000910;28;20564;-62
2023/12/22 08:15:01;;;;;;;12.32;3.28;;;7.00;99.90;;;;;;4999888;28;20063;-62
2023/12/22 08:17:28;;;;;;;10.85;2.75;;;6.90;99.90;;;;;;4998791;28;20046;-62
2023/12/22 08:19:53;;;;;;;14.55;3.97;;;6.90;99.90;;;;;;5013757;28;20092;-61
2023/12/22 08:22:19;;;;;;;12.50;2.75;;;6.90;99.90;;;;;;5003242;28;20042;-62
2023/12/22 08:24:45;;;;;;;11.75;2.15;;;6.80;99.90;;;;;;5025213;28;20061;-62
2023/12/22 08:27:10;;;;;;;14.10;2.83;;;6.70;99.90;;;;;;5009173;28;20441;-62
2023/12/22 08:29:36;;;;;;;10.40;2.60;;;6.70;99.90;;;;;;5014619;28;20052;-62
2023/12/22 08:32:02;;;;;;;9.15;2.17;;;6.60;99.90;;;;;;4997546;28;20049;-62
2023/12/22 08:34:28;;;;;;;9.38;2.33;;;6.60;99.90;;;;;;4993243;28;20077;-62
2023/12/22 08:36:54;;;;;;;14.70;2.72;;;6.50;99.90;;;;;;5025037;28;20126;-62
2023/12/22 08:39:19;;;;;;;11.35;1.83;;;6.40;99.90;;;;;;5002023;28;20436;-62
2023/12/22 08:41:46;;;;;;;8.90;1.95;;;6.40;99.90;;;;;;5010937;28;20400;-62
2023/12/22 08:44:14;;;;;;;8.93;2.00;;;6.40;99.90;;;;;;5001448;28;20124;-62
2023/12/22 08:46:40;;;;;;;9.20;3.53;;;6.40;99.90;;;;;;5013850;28;20049;-62
2023/12/22 08:49:06;;;;;;;8.63;2.40;;;6.40;99.90;;;;;;5005376;28;20144;-62
2023/12/22 08:51:31;;;;;;;14.20;2.70;;;6.40;99.90;;;;;;4999632;28;20049;-61
2023/12/22 08:53:58;;;;;;;12.80;2.58;;;6.50;99.90;;;;;;4998237;28;20061;-61
2023/12/22 08:56:25;;;;;;;13.68;2.70;;;6.50;99.90;;;;;;5013110;28;20055;-62
2023/12/22 08:58:54;;;;;;;10.43;2.65;;;6.50;99.90;;;;;;4997173;28;20525;-62
2023/12/22 09:01:20;;;;;;;9.63;2.33;;;6.50;99.90;;;;;;5006998;28;20042;-61
2023/12/22 09:03:46;;;;;;;13.23;2.55;;;6.60;99.90;;;;;;5009834;28;20050;-62
2023/12/22 09:06:19;;;;;;;11.27;2.25;;;6.50;99.90;;;;;;5016356;28;20029;-62
2023/12/22 09:08:45;;;;;;;11.63;2.92;;;6.50;99.90;;;;;;5025172;28;20600;-62
2023/12/22 09:11:12;;;;;;;6.85;2.55;;;6.50;99.90;;;;;;5013041;28;20053;-62
2023/12/22 09:13:38;;;;;;;17.63;2.75;;;6.60;99.90;;;;;;5009127;28;20497;-62
2023/12/22 09:16:05;;;;;;;19.17;3.08;;;6.60;99.90;;;;;;5012881;28;20546;-62
2023/12/22 09:18:31;;;;;;;15.60;3.97;;;6.60;99.90;;;;;;5000037;28;20052;-62
2023/12/22 09:20:57;;;;;;;10.52;2.65;;;6.60;99.90;;;;;;5000942;28;20033;-62
2023/12/22 09:23:23;;;;;;;15.50;3.85;;;6.70;99.90;;;;;;5023802;28;20040;-61
2023/12/22 09:25:49;;;;;;;13.38;3.25;;;6.70;99.90;;;;;;5013142;28;20056;-62
2023/12/22 09:28:15;;;;;;;13.48;3.22;;;6.80;99.90;;;;;;5012998;28;20041;-62
2023/12/22 09:30:41;;;;;;;13.13;3.33;;;6.90;99.90;;;;;;5011981;28;20053;-62
2023/12/22 09:33:11;;;;;;;16.02;3.88;;;6.90;99.90;;;;;;5030595;28;20397;-61
2023/12/22 09:35:36;;;;;;;12.38;3.38;;;6.90;99.90;;;;;;5016120;28;20564;-61
2023/12/22 09:38:03;;;;;;;11.82;3.13;;;7.00;99.90;;;;;;5034866;28;20116;-63
2023/12/22 09:40:29;;;;;;;21.25;4.50;;;7.00;99.90;;;;;;5019375;28;20044;-62
2023/12/22 09:42:55;;;;;;;16.85;2.83;;;7.00;99.90;;;;;;5016931;28;20049;-66
2023/12/22 09:45:21;;;;;;;13.73;3.70;;;7.00;99.90;;;;;;5014603;28;20045;-61
2023/12/22 09:47:48;;;;;;;15.25;3.55;;;7.00;99.90;;;;;;5029187;28;20064;-62
2023/12/22 09:50:15;;;;;;;18.02;3.30;;;7.00;99.90;;;;;;5026406;28;20061;-61
2023/12/22 09:52:44;;;;;;;10.98;3.30;;;7.10;99.90;;;;;;5004837;28;20091;-61
2023/12/22 09:55:10;;;;;;;21.40;3.67;;;7.10;99.90;;;;;;5015697;28;20037;-61
2023/12/22 09:57:39;;;;;;;15.50;3.10;;;7.10;99.90;;;;;;5018982;28;20049;-60
2023/12/22 10:00:10;;;;;;;16.60;3.40;;;7.20;99.90;;;;;;5024644;28;20045;-61
2023/12/22 10:02:39;;;;;;;13.77;3.22;;;7.20;99.90;;;;;;5027795;28;20049;-62
2023/12/22 10:05:05;;;;;;;14.55;2.30;;;7.20;99.90;;;;;;4997920;28;20052;-62
2023/12/22 10:07:33;;;;;;;9.82;2.45;;;7.30;99.90;;;;;;4994683;28;20033;-62
2023/12/22 10:10:00;;;;;;;12.40;2.92;;;7.30;99.90;;;;;;4995915;28;20058;-62
2023/12/22 10:12:28;;;;;;;10.57;2.55;;;7.30;99.90;;;;;;4996382;28;20491;-62
2023/12/22 10:14:56;;;;;;;10.88;2.30;;;7.40;99.90;;;;;;5013649;28;20128;-62
2023/12/22 10:17:22;;;;;;;10.98;3.45;;;7.40;99.90;;;;;;5014950;28;20079;-62
2023/12/22 10:19:48;;;;;;;12.50;3.13;;;7.40;99.90;;;;;;5014012;28;20472;-62
2023/12/22 10:22:14;;;;;;;13.30;2.60;;;7.40;99.90;;;;;;5014974;28;20509;-62
2023/12/22 10:24:43;;;;;;;14.13;2.88;;;7.50;99.90;;;;;;4998648;28;20045;-62
2023/12/22 10:27:11;;;;;;;10.30;3.05;;;7.50;99.90;;;;;;5013858;28;20379;-62
2023/12/22 10:29:37;;;;;;;15.85;2.33;;;7.50;99.90;;;;;;5014741;28;20053;-62
2023/12/22 10:32:04;;;;;;;11.20;2.88;;;7.50;99.90;;;;;;5014667;28;20049;-62
2023/12/22 10:34:33;;;;;;;16.05;2.35;;;7.60;99.90;;;;;;5013607;28;20080;-62
2023/12/22 10:37:00;;;;;;;11.40;2.60;;;7.60;99.90;;;;;;5014924;28;20510;-62
2023/12/22 10:39:30;;;;;;;8.95;1.85;;;7.60;99.90;;;;;;5014371;28;20045;-62
2023/12/22 10:41:57;;;;;;;9.48;3.67;;;7.60;99.90;;;;;;5014316;28;20363;-62
2023/12/22 10:44:29;;;;;;;9.82;2.50;;;7.60;99.90;;;;;;5014508;28;20490;-62
2023/12/22 10:47:00;;;;;;;7.97;2.42;;;7.60;99.90;;;;;;5014694;28;20049;-62
2023/12/22 10:49:25;;;;;;;11.15;2.50;;;7.70;99.90;;;;;;5013636;28;20053;-62
2023/12/22 10:51:52;;;;;;;14.75;2.85;;;7.70;99.90;;;;;;5014468;28;20052;-62
2023/12/22 10:54:20;;;;;;;10.48;2.20;;;7.70;99.90;;;;;;5013588;28;20502;-62
2023/12/22 10:56:45;;;;;;;10.13;2.90;;;7.70;99.90;;;;;;5013523;28;20604;-62
2023/12/22 10:59:11;;;;;;;10.82;3.50;;;7.70;99.90;;;;;;5014214;28;20129;-62
2023/12/22 11:01:40;;;;;;;12.07;3.05;;;7.70;99.90;;;;;;5014203;28;20044;-62
2023/12/22 11:04:09;;;;;;;9.82;2.50;;;7.80;99.90;;;;;;5033080;28;20071;-62
2023/12/22 11:06:36;;;;;;;11.52;2.80;;;7.70;99.90;;;;;;5017582;28;20182;-62
2023/12/22 11:09:08;;;;;;;14.20;3.22;;;7.80;99.90;;;;;;5033324;28;20490;-62
2023/12/22 11:11:35;;;;;;;11.20;2.60;;;7.80;99.90;;;;;;5034286;28;20393;-62
2023/12/22 11:14:01;;;;;;;12.73;2.83;;;7.70;99.90;;;;;;5034207;28;20053;-62
2023/12/22 11:16:33;;;;;;;10.63;3.10;;;7.70;99.90;;;;;;5051039;28;20566;-62
2023/12/22 11:19:00;;;;;;;16.95;3.10;;;7.70;99.90;;;;;;5034360;28;20040;-62
2023/12/22 11:21:26;;;;;;;9.10;2.53;;;7.70;99.90;;;;;;5033914;28;20145;-62
2023/12/22 11:23:53;;;;;;;17.55;3.00;;;7.70;99.90;;;;;;5033027;28;20481;-62
2023/12/22 11:26:23;;;;;;;12.85;3.38;;;7.70;99.90;;;;;;5033616;28;20565;-62
2023/12/22 11:28:50;;;;;;;8.93;2.15;;;7.70;99.90;;;;;;5033609;28;20051;-62
2023/12/22 11:31:18;;;;;;;8.82;2.65;;;7.70;99.90;;;;;;5016841;28;20375;-62
2023/12/22 11:33:45;;;;;;;13.32;2.92;;;7.70;99.90;;;;;;5034071;28;20041;-62
2023/12/22 11:36:12;;;;;;;13.63;2.60;;;7.70;99.90;;;;;;5033726;28;20049;-62
2023/12/22 11:38:40;;;;;;;7.57;1.98;;;7.70;99.90;;;;;;5033239;28;20080;-62
2023/12/22 11:41:08;;;;;;;10.27;2.92;;;7.70;99.90;;;;;;5033865;28;20041;-62
2023/12/22 11:43:35;;;;;;;8.80;1.60;;;7.70;99.90;;;;;;5035033;28;20040;-62
2023/12/22 11:46:02;;;;;;;10.55;2.45;;;7.70;99.90;;;;;;5053844;28;20076;-62
2023/12/22 11:48:29;;;;;;;9.80;2.38;;;7.70;99.90;;;;;;5037571;28;20045;-62
2023/12/22 11:50:55;;;;;;;15.57;2.63;;;7.70;99.90;;;;;;5037548;28;20559;-62
2023/12/22 11:53:24;;;;;;;11.60;2.80;;;7.70;99.90;;;;;;5053455;28;20119;-62
2023/12/22 11:56:08;;;;;;;12.88;2.70;;;7.70;99.90;;;;;;5037342;28;20041;-62
2023/12/22 11:58:42;;;;;;;15.02;2.78;;;7.70;99.90;;;;;;5036420;28;20041;-63
2023/12/22 12:01:14;;;;;;;15.02;3.35;;;7.70;99.90;;;;;;5035614;28;20033;-62
2023/12/22 12:04:03;;;;;;;13.27;3.72;;;7.80;99.90;;;;;;5014875;28;20391;-62
2023/12/22 12:06:29;;;;;;;12.52;2.38;;;7.80;99.90;;;;;;4997941;28;20046;-63
2023/12/22 12:08:59;;;;;;;18.35;3.80;;;7.70;99.90;;;;;;4983038;28;20069;-62
2023/12/22 12:11:59;;;;;;;16.02;5.38;;;7.80;99.90;;;;;;4983051;28;20076;-61
2023/12/22 12:14:37;;;;;;;8.25;2.50;;;7.80;99.90;;;;;;4997379;28;20045;-61
2023/12/22 12:17:08;;;;;;;12.98;2.92;;;7.80;99.90;;;;;;5008587;28;20042;-61
2023/12/22 12:19:41;;;;;;;11.32;2.72;;;7.80;99.90;;;;;;5016830;28;20124;-62
2023/12/22 12:22:07;;;;;;;7.35;2.35;;;7.80;99.90;;;;;;5017422;28;20121;-62
2023/12/22 12:24:33;;;;;;;7.93;3.40;;;7.80;99.90;;;;;;4996084;28;20172;-61
2023/12/22 12:26:59;;;;;;;12.32;2.28;;;7.70;99.90;;;;;;5014302;28;20576;-61
2023/12/22 12:29:25;;;;;;;9.40;2.28;;;7.70;99.90;;;;;;4995134;28;20048;-62
2023/12/22 12:31:51;;;;;;;9.65;2.00;;;7.70;99.90;;;;;;4995158;28;20054;-62
2023/12/22 12:34:20;;;;;;;10.85;2.05;;;7.70;99.90;;;;;;4994313;28;20069;-62
2023/12/22 12:36:47;;;;;;;7.88;2.10;;;7.70;99.90;;;;;;4994607;28;20111;-62
2023/12/22 12:39:15;;;;;;;8.52;2.15;;;7.60;99.90;;;;;;5010394;28;20049;-62
2023/12/22 12:41:44;;;;;;;10.70;3.20;;;7.60;99.90;;;;;;5009805;28;20113;-62
2023/12/22 12:44:10;;;;;;;14.15;2.35;;;7.50;99.90;;;;;;4996169;28;20045;-62
2023/12/22 12:46:37;;;;;;;8.52;2.22;;;7.50;99.90;;;;;;5007727;28;20044;-62